createdAt,value
2023-03-16T00:02:10.220Z,1.80
2023-03-16T00:04:37.660Z,2.00
2023-03-16T00:07:11.440Z,2.20
2023-03-16T00:09:42.245Z,2.10
2023-03-16T00:12:16.085Z,1.90
2023-03-16T00:14:48.250Z,2.00
2023-03-16T00:17:19.828Z,2.00
2023-03-16T00:19:48.369Z,2.10
2023-03-16T00:22:16.390Z,2.10
2023-03-16T00:24:43.457Z,2.20
2023-03-16T00:27:14.659Z,2.40
2023-03-16T00:29:48.419Z,2.50
2023-03-16T00:32:17.792Z,2.30
2023-03-16T00:34:45.615Z,2.00
2023-03-16T00:37:15.445Z,2.00
2023-03-16T00:39:43.141Z,1.90
2023-03-16T00:42:11.014Z,1.90
2023-03-16T00:44:38.271Z,2.00
2023-03-16T00:47:06.388Z,2.00
2023-03-16T00:49:34.873Z,1.90
2023-03-16T00:52:07.184Z,2.10
2023-03-16T00:54:33.891Z,1.90
2023-03-16T00:57:01.801Z,1.90
2023-03-16T00:59:29.291Z,1.90
2023-03-16T01:01:56.370Z,1.70
2023-03-16T01:04:23.336Z,1.70
2023-03-16T01:06:50.224Z,1.70
2023-03-16T01:09:16.994Z,1.80
2023-03-16T01:11:43.757Z,1.70
2023-03-16T01:14:11.346Z,1.80
2023-03-16T01:16:38.087Z,1.90
2023-03-16T01:19:04.796Z,1.80
2023-03-16T01:21:33.672Z,1.70
2023-03-16T01:24:00.491Z,1.70
2023-03-16T01:26:28.028Z,1.70
2023-03-16T01:28:54.887Z,1.70
2023-03-16T01:31:21.917Z,1.60
2023-03-16T01:33:48.665Z,1.60
2023-03-16T01:36:17.622Z,1.60
2023-03-16T01:38:45.148Z,1.60
2023-03-16T01:41:12.549Z,1.60
2023-03-16T01:43:41.232Z,1.60
2023-03-16T01:46:07.956Z,1.60
2023-03-16T01:48:51.885Z,1.70
2023-03-16T01:51:27.212Z,1.80
2023-03-16T01:53:58.379Z,1.60
2023-03-16T01:56:35.045Z,1.50
2023-03-16T01:59:07.101Z,1.60
2023-03-16T02:01:33.993Z,1.50
2023-03-16T02:04:13.364Z,1.60
2023-03-16T02:06:40.454Z,1.90
2023-03-16T02:09:08.103Z,2.10
2023-03-16T02:11:35.350Z,2.10
2023-03-16T02:14:08.119Z,2.10
2023-03-16T02:16:35.078Z,2.10
2023-03-16T02:19:01.945Z,2.20
2023-03-16T02:21:39.767Z,2.20
2023-03-16T02:24:06.682Z,2.20
2023-03-16T02:26:48.486Z,2.20
2023-03-16T02:29:42.839Z,1.70
2023-03-16T02:32:11.322Z,1.40
2023-03-16T02:34:39.423Z,1.30
2023-03-16T02:37:07.178Z,1.20
2023-03-16T02:39:34.449Z,1.10
2023-03-16T02:42:02.151Z,1.00
2023-03-16T02:44:36.721Z,1.00
2023-03-16T02:47:09.837Z,0.80
2023-03-16T02:49:45.367Z,0.80
2023-03-16T02:52:13.238Z,0.80
2023-03-16T02:54:40.195Z,0.80
2023-03-16T02:57:06.830Z,0.60
2023-03-16T02:59:33.468Z,0.70
2023-03-16T03:02:00.346Z,0.90
2023-03-16T03:04:27.369Z,1.10
2023-03-16T03:06:54.267Z,1.30
2023-03-16T03:09:21.006Z,1.40
2023-03-16T03:11:47.744Z,1.50
2023-03-16T03:14:16.689Z,1.60
2023-03-16T03:16:46.659Z,1.50
2023-03-16T03:19:14.199Z,1.20
2023-03-16T03:21:41.855Z,1.30
2023-03-16T03:24:09.445Z,1.30
2023-03-16T03:26:38.068Z,1.20
2023-03-16T03:29:04.979Z,1.00
2023-03-16T03:31:31.901Z,0.90
2023-03-16T03:33:58.845Z,1.10
2023-03-16T03:36:25.842Z,1.10
2023-03-16T03:38:54.761Z,1.10
2023-03-16T03:41:22.412Z,1.10
2023-03-16T03:43:49.193Z,1.10
2023-03-16T03:46:15.937Z,0.90
2023-03-16T03:48:42.828Z,0.90
2023-03-16T03:51:09.713Z,1.20
2023-03-16T03:53:36.438Z,1.00
2023-03-16T03:56:03.064Z,1.30
2023-03-16T03:58:29.807Z,1.30
2023-03-16T04:00:56.454Z,1.30
2023-03-16T04:03:23.171Z,1.50
2023-03-16T04:05:49.922Z,1.50
2023-03-16T04:08:16.600Z,1.40
2023-03-16T04:10:43.291Z,1.40
2023-03-16T04:13:10.030Z,1.40
2023-03-16T04:15:39.033Z,1.30
2023-03-16T04:18:05.772Z,1.10
2023-03-16T04:20:32.516Z,0.90
2023-03-16T04:22:59.255Z,0.90
2023-03-16T04:25:27.451Z,1.00
2023-03-16T04:27:54.485Z,1.00
2023-03-16T04:30:21.309Z,1.00
2023-03-16T04:32:47.967Z,1.00
2023-03-16T04:35:15.625Z,1.00
2023-03-16T04:37:42.332Z,1.30
2023-03-16T04:40:15.920Z,1.40
2023-03-16T04:42:47.450Z,1.60
2023-03-16T04:45:15.527Z,1.70
2023-03-16T04:47:42.350Z,1.70
2023-03-16T04:50:10.465Z,1.70
2023-03-16T04:52:37.129Z,1.70
2023-03-16T04:55:04.298Z,1.60
2023-03-16T04:57:31.096Z,1.40
2023-03-16T04:59:57.711Z,1.20
2023-03-16T05:02:24.511Z,1.00
2023-03-16T05:04:51.239Z,0.80
2023-03-16T05:07:17.995Z,0.60
2023-03-16T05:09:44.735Z,0.60
2023-03-16T05:12:11.571Z,0.60
2023-03-16T05:14:38.474Z,0.50
2023-03-16T05:17:05.350Z,0.50
2023-03-16T05:19:32.073Z,0.40
2023-03-16T05:21:58.897Z,0.30
2023-03-16T05:24:25.711Z,0.30
2023-03-16T05:26:52.591Z,0.40
2023-03-16T05:29:19.337Z,0.50
2023-03-16T05:31:47.686Z,0.50
2023-03-16T05:34:14.922Z,0.50
2023-03-16T05:36:41.672Z,0.50
2023-03-16T05:39:11.075Z,0.40
2023-03-16T05:41:37.876Z,0.40
2023-03-16T05:44:04.746Z,0.30
2023-03-16T05:46:32.369Z,0.30
2023-03-16T05:48:59.227Z,0.30
2023-03-16T05:51:26.437Z,0.40
2023-03-16T05:53:56.586Z,0.50
2023-03-16T05:56:28.133Z,0.40
2023-03-16T05:58:55.567Z,0.40
2023-03-16T06:01:23.137Z,0.50
2023-03-16T06:03:51.875Z,0.50
2023-03-16T06:06:22.408Z,0.40
2023-03-16T06:08:49.101Z,0.30
2023-03-16T06:11:15.784Z,0.30
2023-03-16T06:13:42.527Z,0.40
2023-03-16T06:16:11.466Z,0.40
2023-03-16T06:18:38.178Z,0.40
2023-03-16T06:21:05.019Z,0.40
2023-03-16T06:23:31.710Z,0.30
2023-03-16T06:25:59.614Z,0.30
2023-03-16T06:28:26.892Z,0.40
2023-03-16T06:30:55.403Z,0.40
2023-03-16T06:33:22.127Z,0.40
2023-03-16T06:35:49.909Z,0.40
2023-03-16T06:38:17.685Z,0.50
2023-03-16T06:40:44.367Z,0.50
2023-03-16T06:43:11.107Z,0.50
2023-03-16T06:45:39.383Z,0.40
2023-03-16T06:48:06.976Z,0.40
2023-03-16T06:50:33.653Z,0.50
2023-03-16T06:53:00.312Z,0.80
2023-03-16T06:55:27.012Z,0.80
2023-03-16T06:57:53.656Z,0.90
2023-03-16T07:00:21.560Z,1.10
2023-03-16T07:02:48.452Z,1.20
2023-03-16T07:05:15.201Z,1.40
2023-03-16T07:07:42.926Z,1.60
2023-03-16T07:10:15.907Z,1.70
2023-03-16T07:12:42.646Z,1.80
2023-03-16T07:15:10.840Z,1.90
2023-03-16T07:17:37.963Z,1.90
2023-03-16T07:20:10.350Z,1.90
2023-03-16T07:22:37.949Z,2.20
2023-03-16T07:25:06.300Z,2.20
2023-03-16T07:27:33.393Z,2.20
2023-03-16T07:30:00.442Z,2.40
2023-03-16T07:32:27.226Z,2.50
2023-03-16T07:34:53.884Z,2.50
2023-03-16T07:37:25.374Z,2.60
2023-03-16T07:39:52.387Z,2.50
2023-03-16T07:42:19.859Z,2.70
2023-03-16T07:44:46.527Z,2.70
2023-03-16T07:47:13.583Z,2.50
2023-03-16T07:49:41.647Z,2.50
2023-03-16T07:52:08.492Z,2.50
2023-03-16T07:54:35.288Z,2.50
2023-03-16T07:57:01.911Z,2.60
2023-03-16T07:59:28.578Z,2.60
2023-03-16T08:01:55.169Z,2.70
2023-03-16T08:04:22.326Z,2.80
2023-03-16T08:06:48.986Z,2.80
2023-03-16T08:09:15.731Z,3.00
2023-03-16T08:11:42.771Z,3.00
2023-03-16T08:14:09.531Z,3.00
2023-03-16T08:16:36.675Z,3.00
2023-03-16T08:19:03.669Z,3.00
2023-03-16T08:21:30.367Z,3.20
2023-03-16T08:23:57.052Z,3.30
2023-03-16T08:26:24.617Z,3.30
2023-03-16T08:28:52.603Z,3.40
2023-03-16T08:31:21.627Z,3.40
2023-03-16T08:33:49.002Z,3.40
2023-03-16T08:36:18.029Z,3.40
2023-03-16T08:38:59.918Z,3.40
2023-03-16T08:41:33.142Z,3.50
2023-03-16T08:43:59.972Z,3.60
2023-03-16T08:46:26.956Z,3.60
2023-03-16T08:48:55.776Z,3.70
2023-03-16T08:51:22.443Z,3.70
2023-03-16T08:53:49.107Z,3.80
2023-03-16T08:56:15.800Z,3.90
2023-03-16T08:58:45.354Z,3.90
2023-03-16T09:01:14.372Z,3.90
2023-03-16T09:03:42.241Z,4.00
2023-03-16T09:06:11.010Z,4.10
2023-03-16T09:08:39.186Z,4.50
2023-03-16T09:11:12.617Z,4.60
2023-03-16T09:13:40.184Z,4.50
2023-03-16T09:16:08.593Z,4.50
2023-03-16T09:18:36.274Z,4.50
2023-03-16T09:21:05.809Z,4.60
2023-03-16T09:23:34.459Z,4.50
2023-03-16T09:26:03.179Z,4.60
2023-03-16T09:28:34.004Z,4.90
2023-03-16T09:31:01.631Z,5.20
2023-03-16T09:33:29.906Z,5.10
2023-03-16T09:35:57.713Z,5.20
2023-03-16T09:38:28.751Z,5.20
2023-03-16T09:41:22.420Z,5.10
2023-03-16T09:44:10.876Z,5.30
2023-03-16T09:46:42.410Z,5.80
2023-03-16T09:49:12.569Z,5.70
2023-03-16T09:51:48.766Z,5.70
2023-03-16T09:54:40.281Z,5.70
2023-03-16T09:57:25.890Z,5.70
2023-03-16T09:59:53.153Z,5.60
2023-03-16T10:02:45.626Z,5.80
2023-03-16T10:05:17.107Z,5.90
2023-03-16T10:08:06.623Z,6.20
2023-03-16T10:11:18.760Z,6.60
2023-03-16T10:14:27.445Z,6.60
2023-03-16T10:17:03.143Z,6.70
2023-03-16T10:19:38.409Z,6.50
2023-03-16T10:22:42.904Z,6.40
2023-03-16T10:25:42.749Z,6.50
2023-03-16T10:28:22.425Z,6.60
2023-03-16T10:30:51.825Z,6.60
2023-03-16T10:33:26.664Z,6.60
2023-03-16T10:36:05.499Z,6.80
2023-03-16T10:38:42.879Z,7.20
2023-03-16T10:41:16.272Z,7.30
2023-03-16T10:43:43.263Z,7.20
2023-03-16T10:46:14.646Z,7.40
2023-03-16T10:48:42.461Z,7.50
2023-03-16T10:51:15.743Z,8.20
2023-03-16T10:53:44.614Z,8.20
2023-03-16T10:56:25.287Z,8.10
2023-03-16T10:58:52.236Z,8.10
2023-03-16T11:01:26.808Z,8.20
2023-03-16T11:03:56.953Z,8.20
2023-03-16T11:06:26.460Z,8.30
2023-03-16T11:08:54.004Z,8.50
2023-03-16T11:11:29.769Z,8.70
2023-03-16T11:14:01.693Z,8.80
2023-03-16T11:16:37.299Z,8.80
2023-03-16T11:19:24.814Z,9.00
2023-03-16T11:22:01.308Z,8.90
2023-03-16T11:24:36.433Z,9.10
2023-03-16T11:27:08.879Z,9.10
2023-03-16T11:29:35.809Z,9.20
2023-03-16T11:32:07.293Z,9.40
2023-03-16T11:34:35.264Z,9.40
2023-03-16T11:37:23.240Z,9.50
2023-03-16T11:40:14.284Z,9.60
2023-03-16T11:43:23.044Z,9.60
2023-03-16T11:46:37.497Z,9.70
2023-03-16T11:49:35.564Z,9.90
2023-03-16T11:52:21.026Z,10.00
2023-03-16T11:55:15.216Z,10.00
2023-03-16T11:58:16.390Z,10.10
2023-03-16T12:01:08.567Z,10.20
2023-03-16T12:03:53.767Z,10.40
2023-03-16T12:06:54.282Z,10.60
2023-03-16T12:09:38.174Z,10.60
2023-03-16T12:12:29.469Z,10.80
2023-03-16T12:15:20.088Z,10.80
2023-03-16T12:17:48.615Z,10.80
2023-03-16T12:20:21.364Z,10.90
2023-03-16T12:23:02.377Z,11.10
2023-03-16T12:25:36.671Z,11.10
2023-03-16T12:28:09.468Z,11.20
2023-03-16T12:31:09.229Z,11.20
2023-03-16T12:33:56.428Z,11.30
2023-03-16T12:36:46.319Z,11.30
2023-03-16T12:39:22.020Z,11.40
2023-03-16T12:42:03.701Z,11.50
2023-03-16T12:44:42.861Z,11.60
2023-03-16T12:47:19.740Z,11.70
2023-03-16T12:49:46.790Z,11.80
2023-03-16T12:52:14.602Z,12.00
2023-03-16T12:54:51.979Z,12.20
2023-03-16T12:57:20.139Z,12.10
2023-03-16T12:59:50.660Z,12.00
2023-03-16T13:02:24.230Z,12.20
2023-03-16T13:04:59.004Z,11.90
2023-03-16T13:07:28.369Z,12.00
2023-03-16T13:10:00.803Z,12.30
2023-03-16T13:12:36.752Z,12.30
2023-03-16T13:15:19.367Z,12.40
2023-03-16T13:17:48.484Z,12.40
2023-03-16T13:20:32.022Z,12.60
2023-03-16T13:23:23.997Z,12.40
2023-03-16T13:26:04.072Z,12.70
2023-03-16T13:28:34.345Z,12.60
2023-03-16T13:31:02.334Z,12.70
2023-03-16T13:33:33.030Z,12.70
2023-03-16T13:36:00.604Z,12.80
2023-03-16T13:38:28.599Z,12.80
2023-03-16T13:41:05.927Z,13.00
2023-03-16T13:43:35.686Z,13.00
2023-03-16T13:46:12.856Z,13.10
2023-03-16T13:48:41.687Z,13.30
2023-03-16T13:51:16.250Z,13.30
2023-03-16T13:53:43.943Z,13.30
2023-03-16T13:56:21.488Z,13.40
2023-03-16T13:58:51.490Z,13.20
2023-03-16T14:01:38.845Z,13.30
2023-03-16T14:04:14.084Z,13.40
2023-03-16T14:06:43.686Z,13.20
2023-03-16T14:09:21.646Z,13.30
2023-03-16T14:11:51.299Z,13.10
2023-03-16T14:14:25.499Z,13.20
2023-03-16T14:16:54.651Z,13.30
2023-03-16T14:19:32.493Z,13.50
2023-03-16T14:22:04.115Z,13.40
2023-03-16T14:24:37.605Z,13.50
2023-03-16T14:27:22.938Z,13.50
2023-03-16T14:29:59.351Z,13.70
2023-03-16T14:32:31.962Z,13.70
2023-03-16T14:35:26.663Z,13.80
2023-03-16T14:37:56.472Z,14.20
2023-03-16T14:40:31.706Z,13.60
2023-03-16T14:43:03.663Z,13.60
2023-03-16T14:45:34.485Z,13.60
2023-03-16T14:48:08.411Z,13.40
2023-03-16T14:50:35.330Z,13.40
2023-03-16T14:53:03.985Z,13.40
2023-03-16T14:55:31.494Z,13.30
2023-03-16T14:57:58.367Z,13.20
2023-03-16T15:00:26.193Z,13.20
2023-03-16T15:03:12.789Z,13.10
2023-03-16T15:05:42.020Z,13.10
2023-03-16T15:08:18.971Z,13.10
2023-03-16T15:10:46.719Z,13.10
2023-03-16T15:13:24.364Z,13.20
2023-03-16T15:15:51.035Z,13.20
2023-03-16T15:18:18.086Z,13.10
2023-03-16T15:20:45.519Z,13.10
2023-03-16T15:23:15.075Z,12.90
2023-03-16T15:25:43.739Z,12.80
2023-03-16T15:28:21.761Z,12.70
2023-03-16T15:30:52.472Z,12.70
2023-03-16T15:33:19.921Z,12.60
2023-03-16T15:35:49.200Z,12.70
2023-03-16T15:38:21.606Z,12.60
2023-03-16T15:40:51.091Z,12.60
2023-03-16T15:43:20.581Z,12.60
2023-03-16T15:45:47.864Z,12.50
2023-03-16T15:48:16.196Z,12.50
2023-03-16T15:51:09.099Z,12.50
2023-03-16T15:53:40.313Z,12.50
2023-03-16T15:56:14.838Z,12.40
2023-03-16T15:58:45.531Z,12.40
2023-03-16T16:01:22.187Z,12.40
2023-03-16T16:03:51.104Z,12.20
2023-03-16T16:06:18.090Z,12.20
2023-03-16T16:08:44.752Z,12.30
2023-03-16T16:11:17.826Z,12.30
2023-03-16T16:13:45.325Z,12.20
2023-03-16T16:16:14.541Z,12.20
2023-03-16T16:18:41.469Z,12.20
2023-03-16T16:21:17.125Z,12.20
2023-03-16T16:23:43.840Z,12.00
2023-03-16T16:26:46.912Z,12.00
2023-03-16T16:29:18.647Z,12.00
2023-03-16T16:31:45.501Z,12.00
2023-03-16T16:34:14.663Z,12.00
2023-03-16T16:36:41.663Z,11.90
2023-03-16T16:39:08.492Z,11.80
2023-03-16T16:41:36.706Z,11.80
2023-03-16T16:44:10.485Z,11.80
2023-03-16T16:46:41.878Z,11.80
2023-03-16T16:49:16.196Z,11.80
2023-03-16T16:51:43.192Z,11.80
2023-03-16T16:54:19.634Z,11.90
2023-03-16T16:56:47.604Z,11.80
2023-03-16T16:59:18.321Z,11.90
2023-03-16T17:01:46.976Z,11.90
2023-03-16T17:04:31.828Z,11.80
2023-03-16T17:07:01.933Z,11.80
2023-03-16T17:09:30.036Z,11.80
2023-03-16T17:11:59.954Z,11.70
2023-03-16T17:14:31.033Z,11.70
2023-03-16T17:17:03.224Z,11.60
2023-03-16T17:19:30.016Z,11.60
2023-03-16T17:21:57.729Z,11.60
2023-03-16T17:24:24.942Z,11.50
2023-03-16T17:26:55.825Z,11.50
2023-03-16T17:29:32.071Z,11.40
2023-03-16T17:32:04.719Z,11.30
2023-03-16T17:34:34.326Z,11.30
2023-03-16T17:37:01.938Z,11.20
2023-03-16T17:39:37.144Z,11.20
2023-03-16T17:42:11.019Z,11.10
2023-03-16T17:44:41.940Z,11.00
2023-03-16T17:47:26.432Z,10.90
2023-03-16T17:49:53.759Z,10.80
2023-03-16T17:52:23.490Z,10.70
2023-03-16T17:54:51.995Z,10.60
2023-03-16T17:57:27.721Z,10.60
2023-03-16T17:59:54.907Z,10.50
2023-03-16T18:02:39.624Z,10.40
2023-03-16T18:05:13.178Z,10.30
2023-03-16T18:07:39.857Z,10.20
2023-03-16T18:10:06.928Z,10.00
2023-03-16T18:12:34.097Z,9.90
2023-03-16T18:15:00.861Z,9.90
2023-03-16T18:17:32.343Z,10.00
2023-03-16T18:19:59.990Z,10.00
2023-03-16T18:22:27.796Z,10.00
2023-03-16T18:24:55.814Z,9.90
2023-03-16T18:27:22.642Z,9.80
2023-03-16T18:29:49.379Z,9.80
2023-03-16T18:32:25.220Z,9.80
2023-03-16T18:34:53.279Z,9.80
2023-03-16T18:37:23.033Z,9.70
2023-03-16T18:39:51.273Z,9.70
2023-03-16T18:42:23.236Z,9.60
2023-03-16T18:44:50.256Z,9.60
2023-03-16T18:47:20.066Z,9.60
2023-03-16T18:49:49.401Z,9.60
2023-03-16T18:52:22.223Z,9.60
2023-03-16T18:54:50.171Z,9.50
2023-03-16T18:57:25.272Z,9.40
2023-03-16T18:59:52.544Z,9.30
2023-03-16T19:02:28.593Z,9.30
2023-03-16T19:04:57.957Z,9.20
2023-03-16T19:07:33.816Z,9.20
2023-03-16T19:10:28.561Z,9.10
2023-03-16T19:12:55.772Z,9.00
2023-03-16T19:15:25.668Z,8.90
2023-03-16T19:17:52.616Z,8.80
2023-03-16T19:20:22.989Z,8.80
2023-03-16T19:22:53.628Z,8.70
2023-03-16T19:25:27.226Z,8.70
2023-03-16T19:27:53.994Z,8.70
2023-03-16T19:30:23.262Z,8.70
2023-03-16T19:32:51.268Z,8.70
2023-03-16T19:35:19.329Z,8.60
2023-03-16T19:37:46.473Z,8.50
2023-03-16T19:40:14.667Z,8.50
2023-03-16T19:42:42.312Z,8.50
2023-03-16T19:45:30.493Z,8.50
2023-03-16T19:47:57.363Z,8.40
2023-03-16T19:50:26.645Z,8.30
2023-03-16T19:52:54.455Z,8.40
2023-03-16T19:55:29.483Z,8.30
2023-03-16T19:58:01.405Z,8.20
2023-03-16T20:00:29.977Z,8.20
2023-03-16T20:02:57.236Z,8.20
2023-03-16T20:05:29.711Z,8.20
2023-03-16T20:08:00.914Z,8.10
2023-03-16T20:10:29.761Z,8.00
2023-03-16T20:13:01.490Z,7.90
2023-03-16T20:15:32.361Z,7.80
2023-03-16T20:17:59.890Z,7.80
2023-03-16T20:20:29.220Z,7.80
2023-03-16T20:22:59.219Z,7.70
2023-03-16T20:25:31.730Z,7.70
2023-03-16T20:28:02.014Z,7.60
2023-03-16T20:30:29.859Z,7.60
2023-03-16T20:32:57.129Z,7.60
2023-03-16T20:35:23.889Z,7.50
2023-03-16T20:37:52.902Z,7.50
2023-03-16T20:40:21.747Z,7.50
2023-03-16T20:42:49.455Z,7.50
2023-03-16T20:45:23.725Z,7.70
2023-03-16T20:47:52.008Z,7.70
2023-03-16T20:50:25.681Z,7.70
2023-03-16T20:52:54.075Z,7.60
2023-03-16T20:55:25.081Z,7.60
2023-03-16T20:57:53.368Z,7.50
2023-03-16T21:00:34.740Z,7.40
2023-03-16T21:03:04.895Z,7.40
2023-03-16T21:05:32.311Z,7.30
2023-03-16T21:07:59.046Z,7.20
2023-03-16T21:10:27.896Z,7.30
2023-03-16T21:12:56.689Z,7.30
2023-03-16T21:15:29.873Z,7.40
2023-03-16T21:18:01.218Z,7.20
2023-03-16T21:20:30.768Z,7.10
2023-03-16T21:22:58.588Z,7.10
2023-03-16T21:25:30.580Z,7.00
2023-03-16T21:28:03.598Z,6.90
2023-03-16T21:30:31.826Z,6.80
2023-03-16T21:33:02.054Z,6.80
2023-03-16T21:35:34.846Z,6.80
2023-03-16T21:38:10.305Z,6.80
2023-03-16T21:40:36.986Z,6.80
2023-03-16T21:43:03.874Z,6.70
2023-03-16T21:45:31.202Z,6.60
2023-03-16T21:47:58.385Z,6.50
2023-03-16T21:50:31.752Z,6.40
2023-03-16T21:52:58.494Z,6.40
2023-03-16T21:55:29.172Z,6.50
2023-03-16T21:57:58.230Z,6.50
2023-03-16T22:00:35.446Z,6.60
2023-03-16T22:03:04.232Z,6.70
2023-03-16T22:05:39.856Z,6.80
2023-03-16T22:08:28.301Z,6.80
2023-03-16T22:10:55.679Z,6.80
2023-03-16T22:13:23.880Z,6.80
2023-03-16T22:15:52.723Z,6.80
2023-03-16T22:18:35.740Z,6.80
2023-03-16T22:21:18.444Z,6.80
2023-03-16T22:23:45.553Z,6.70
2023-03-16T22:26:16.731Z,6.60
2023-03-16T22:28:43.854Z,6.50
2023-03-16T22:31:16.373Z,6.40
2023-03-16T22:33:46.005Z,6.30
2023-03-16T22:36:19.602Z,6.30
2023-03-16T22:38:49.965Z,6.20
2023-03-16T22:41:17.964Z,6.30
2023-03-16T22:43:45.610Z,6.30
2023-03-16T22:46:19.311Z,6.30
2023-03-16T22:48:46.551Z,6.50
2023-03-16T22:51:32.742Z,6.30
2023-03-16T22:54:08.698Z,6.20
2023-03-16T22:56:36.045Z,6.20
2023-03-16T22:59:06.965Z,6.30
2023-03-16T23:01:37.461Z,6.40
2023-03-16T23:04:13.529Z,6.50
2023-03-16T23:06:40.459Z,6.50
2023-03-16T23:09:07.119Z,6.50
2023-03-16T23:11:36.426Z,6.50
2023-03-16T23:14:03.216Z,6.40
2023-03-16T23:16:34.700Z,6.30
2023-03-16T23:19:02.313Z,6.30
2023-03-16T23:21:30.382Z,6.30
2023-03-16T23:24:03.846Z,6.40
2023-03-16T23:26:31.763Z,6.50
2023-03-16T23:28:59.478Z,6.60
2023-03-16T23:31:27.591Z,6.70
2023-03-16T23:33:54.653Z,6.60
2023-03-16T23:36:24.456Z,6.40
2023-03-16T23:38:51.611Z,6.30
2023-03-16T23:41:22.276Z,6.20
2023-03-16T23:43:50.689Z,6.10
2023-03-16T23:46:21.112Z,6.10
2023-03-16T23:48:49.185Z,6.10
2023-03-16T23:51:27.361Z,5.90
2023-03-16T23:53:54.387Z,5.90
2023-03-16T23:56:22.131Z,5.90
2023-03-16T23:58:49.485Z,5.80
